createdAt,value
2022-12-31T00:00:38.962Z,99517.50
2022-12-31T00:01:44.879Z,99505.03
2022-12-31T00:02:59.623Z,99516.44
2022-12-31T00:04:09.779Z,99510.69
2022-12-31T00:06:42.070Z,99510.97
2022-12-31T00:07:55.055Z,99510.16
2022-12-31T00:09:07.937Z,99511.06
2022-12-31T00:10:27.305Z,99506.19
2022-12-31T00:11:32.691Z,99507.09
2022-12-31T00:12:36.793Z,99512.69
2022-12-31T00:13:47.472Z,99508.41
2022-12-31T00:15:00.492Z,99515.44
2022-12-31T00:16:20.323Z,99513.88
2022-12-31T00:17:38.817Z,99513.34
2022-12-31T00:18:51.040Z,99519.34
2022-12-31T00:20:02.251Z,99515.44
2022-12-31T00:21:11.305Z,99505.81
2022-12-31T00:22:23.489Z,99513.63
2022-12-31T00:24:04.737Z,99507.94
2022-12-31T00:25:22.492Z,99504.81
2022-12-31T00:26:30.963Z,99499.00
2022-12-31T00:29:35.218Z,99499.88
2022-12-31T00:30:46.158Z,99505.34
2022-12-31T00:31:57.272Z,99499.69
2022-12-31T00:35:02.784Z,99497.22
2022-12-31T00:36:23.830Z,99504.91
2022-12-31T00:37:57.719Z,99502.44
2022-12-31T00:39:31.759Z,99497.97
2022-12-31T00:40:45.004Z,99498.44
2022-12-31T00:41:51.441Z,99493.19
2022-12-31T00:43:05.005Z,99493.19
2022-12-31T00:44:14.089Z,99493.00
2022-12-31T00:45:46.277Z,99495.75
2022-12-31T00:47:02.198Z,99499.25
2022-12-31T00:48:12.281Z,99495.09
2022-12-31T00:49:37.141Z,99501.91
2022-12-31T00:50:53.478Z,99492.66
2022-12-31T00:52:01.931Z,99497.75
2022-12-31T00:54:36.639Z,99501.16
2022-12-31T00:55:44.233Z,99491.09
2022-12-31T00:58:06.607Z,99491.44
2022-12-31T00:59:22.567Z,99490.59
2022-12-31T01:00:31.260Z,99487.47
2022-12-31T01:01:39.660Z,99492.97
2022-12-31T01:03:33.381Z,99483.88
2022-12-31T01:05:12.118Z,99483.31
2022-12-31T01:06:46.884Z,99478.03
2022-12-31T01:08:16.903Z,99490.31
2022-12-31T01:09:32.295Z,99481.91
2022-12-31T01:10:58.752Z,99481.03
2022-12-31T01:12:53.327Z,99479.25
2022-12-31T01:14:05.833Z,99488.41
2022-12-31T01:15:16.005Z,99488.59
2022-12-31T01:16:39.923Z,99484.16
2022-12-31T01:18:07.510Z,99486.63
2022-12-31T01:20:54.919Z,99480.47
2022-12-31T01:22:30.119Z,99489.03
2022-12-31T01:23:37.445Z,99493.50
2022-12-31T01:24:44.736Z,99494.41
2022-12-31T01:26:04.299Z,99496.22
2022-12-31T01:27:20.257Z,99492.09
2022-12-31T01:28:38.322Z,99492.63
2022-12-31T01:29:43.809Z,99496.09
2022-12-31T01:30:50.209Z,99493.00
2022-12-31T01:31:54.759Z,99493.28
2022-12-31T01:33:39.434Z,99497.56
2022-12-31T01:34:46.765Z,99493.19
2022-12-31T01:37:47.937Z,99496.00
2022-12-31T01:38:54.808Z,99488.03
2022-12-31T01:41:49.279Z,99492.56
2022-12-31T01:45:29.018Z,99492.81
2022-12-31T01:47:05.985Z,99493.69
2022-12-31T01:48:33.999Z,99489.44
2022-12-31T01:50:19.351Z,99491.94
2022-12-31T01:51:59.423Z,99490.53
2022-12-31T01:54:51.988Z,99493.00
2022-12-31T01:56:02.329Z,99492.56
2022-12-31T01:57:26.474Z,99484.94
2022-12-31T01:58:51.843Z,99493.81
2022-12-31T02:01:21.494Z,99493.34
2022-12-31T02:02:44.996Z,99490.41
2022-12-31T02:03:59.416Z,99491.91
2022-12-31T02:05:46.779Z,99491.91
2022-12-31T02:07:02.089Z,99490.09
2022-12-31T02:08:13.318Z,99487.38
2022-12-31T02:09:35.211Z,99489.53
2022-12-31T02:12:39.175Z,99491.47
2022-12-31T02:14:11.892Z,99485.69
2022-12-31T02:15:29.384Z,99486.13
2022-12-31T02:16:44.176Z,99491.69
2022-12-31T02:17:50.629Z,99495.44
2022-12-31T02:19:08.439Z,99501.34
2022-12-31T02:20:34.468Z,99495.44
2022-12-31T02:21:53.672Z,99493.88
2022-12-31T02:23:34.812Z,99487.03
2022-12-31T02:25:04.260Z,99490.91
2022-12-31T02:26:45.644Z,99490.91
2022-12-31T02:28:08.191Z,99490.69
2022-12-31T02:29:37.047Z,99487.47
2022-12-31T02:30:51.998Z,99495.91
2022-12-31T02:32:00.995Z,99491.13
2022-12-31T02:33:36.300Z,99493.63
2022-12-31T02:34:55.455Z,99502.38
2022-12-31T02:36:04.467Z,99499.75
2022-12-31T02:37:19.929Z,99507.16
2022-12-31T02:38:38.678Z,99499.44
2022-12-31T02:39:44.536Z,99496.34
2022-12-31T02:40:51.281Z,99497.03
2022-12-31T02:42:04.004Z,99501.47
2022-12-31T02:44:42.918Z,99500.09
2022-12-31T02:45:53.335Z,99504.31
2022-12-31T02:47:00.779Z,99506.13
2022-12-31T02:48:08.289Z,99504.19
2022-12-31T02:49:26.806Z,99502.47
2022-12-31T02:50:30.167Z,99505.56
2022-12-31T02:51:54.246Z,99501.13
2022-12-31T02:53:25.379Z,99495.00
2022-12-31T02:54:58.397Z,99496.56
2022-12-31T02:56:19.498Z,99489.06
2022-12-31T02:57:36.313Z,99492.94
2022-12-31T02:59:42.752Z,99506.34
2022-12-31T03:01:11.447Z,99509.06
2022-12-31T03:02:24.265Z,99505.19
2022-12-31T03:03:32.920Z,99503.59
2022-12-31T03:04:36.499Z,99502.25
2022-12-31T03:05:45.374Z,99505.22
2022-12-31T03:06:57.253Z,99512.84
2022-12-31T03:08:07.154Z,99511.03
2022-12-31T03:09:25.476Z,99518.19
2022-12-31T03:10:30.972Z,99511.47
2022-12-31T03:12:04.787Z,99512.25
2022-12-31T03:13:11.630Z,99513.63
2022-12-31T03:14:20.138Z,99507.28
2022-12-31T03:15:34.942Z,99503.97
2022-12-31T03:16:41.187Z,99499.28
2022-12-31T03:18:03.345Z,99502.25
2022-12-31T03:19:27.162Z,99502.00
2022-12-31T03:20:57.598Z,99504.31
2022-12-31T03:22:29.999Z,99507.47
2022-12-31T03:23:51.249Z,99513.59
2022-12-31T03:25:26.882Z,99519.84
2022-12-31T03:26:37.295Z,99515.22
2022-12-31T03:27:44.907Z,99525.13
2022-12-31T03:28:50.289Z,99520.34
2022-12-31T03:30:12.469Z,99511.78
2022-12-31T03:33:04.567Z,99511.56
2022-12-31T03:34:14.959Z,99503.84
2022-12-31T03:35:37.695Z,99502.47
2022-12-31T03:36:48.926Z,99510.13
2022-12-31T03:38:52.808Z,99514.63
2022-12-31T03:40:01.115Z,99511.81
2022-12-31T03:41:10.328Z,99513.63
2022-12-31T03:42:19.378Z,99509.09
2022-12-31T03:43:25.074Z,99512.50
2022-12-31T03:44:32.313Z,99514.44
2022-12-31T03:45:41.301Z,99511.59
2022-12-31T03:46:51.643Z,99512.38
2022-12-31T03:48:02.379Z,99514.41
2022-12-31T03:49:06.574Z,99515.09
2022-12-31T03:50:20.718Z,99517.25
2022-12-31T03:51:32.324Z,99513.59
2022-12-31T03:52:47.846Z,99518.28
2022-12-31T03:54:16.294Z,99511.81
2022-12-31T03:55:20.845Z,99516.03
2022-12-31T03:56:25.522Z,99518.41
2022-12-31T03:57:34.643Z,99514.31
2022-12-31T03:58:39.341Z,99517.38
2022-12-31T03:59:43.044Z,99518.50
2022-12-31T04:00:58.772Z,99518.19
2022-12-31T04:02:37.215Z,99525.00
2022-12-31T04:03:52.884Z,99524.78
2022-12-31T04:04:58.004Z,99523.63
2022-12-31T04:06:01.293Z,99532.72
2022-12-31T04:07:08.055Z,99536.16
2022-12-31T04:08:18.556Z,99531.81
2022-12-31T04:09:29.631Z,99536.81
2022-12-31T04:10:37.263Z,99535.00
2022-12-31T04:11:47.743Z,99541.13
2022-12-31T04:12:57.259Z,99539.19
2022-12-31T04:14:04.529Z,99531.59
2022-12-31T04:15:21.461Z,99539.53
2022-12-31T04:16:33.026Z,99537.50
2022-12-31T04:17:56.787Z,99543.88
2022-12-31T04:19:12.262Z,99548.66
2022-12-31T04:20:21.653Z,99535.56
2022-12-31T04:21:35.790Z,99542.50
2022-12-31T04:22:41.935Z,99545.00
2022-12-31T04:23:58.914Z,99541.72
2022-12-31T04:25:04.585Z,99537.75
2022-12-31T04:26:15.244Z,99546.38
2022-12-31T04:27:19.430Z,99531.81
2022-12-31T04:28:23.298Z,99543.41
2022-12-31T04:29:31.032Z,99540.47
2022-12-31T04:30:50.663Z,99539.53
2022-12-31T04:32:06.389Z,99533.41
2022-12-31T04:33:14.590Z,99544.56
2022-12-31T04:34:24.549Z,99542.50
2022-12-31T04:35:37.653Z,99540.00
2022-12-31T04:36:43.268Z,99547.72
2022-12-31T04:39:18.323Z,99547.72
2022-12-31T04:40:29.520Z,99543.88
2022-12-31T04:41:42.573Z,99548.41
2022-12-31T04:42:50.919Z,99546.13
2022-12-31T04:45:23.682Z,99549.78
2022-12-31T04:46:34.624Z,99550.22
2022-12-31T04:47:43.871Z,99555.69
2022-12-31T04:48:55.462Z,99551.28
2022-12-31T04:50:04.891Z,99553.53
2022-12-31T04:51:16.560Z,99554.22
2022-12-31T04:52:25.466Z,99557.41
2022-12-31T04:53:31.312Z,99562.06
2022-12-31T04:54:39.692Z,99562.50
2022-12-31T04:55:43.181Z,99569.56
2022-12-31T04:58:13.341Z,99571.38
2022-12-31T04:59:26.895Z,99571.84
2022-12-31T05:00:31.429Z,99573.63
2022-12-31T05:02:03.085Z,99569.78
2022-12-31T05:03:33.331Z,99571.38
2022-12-31T05:04:42.788Z,99572.06
2022-12-31T05:05:51.273Z,99580.47
2022-12-31T05:07:11.960Z,99588.88
2022-12-31T05:08:19.277Z,99585.03
2022-12-31T05:10:40.692Z,99591.19
2022-12-31T05:11:58.863Z,99585.50
2022-12-31T05:13:07.576Z,99590.50
2022-12-31T05:14:17.247Z,99595.72
2022-12-31T05:15:27.694Z,99598.91
2022-12-31T05:16:43.809Z,99598.66
2022-12-31T05:18:23.113Z,99599.69
2022-12-31T05:21:33.127Z,99596.84
2022-12-31T05:22:41.665Z,99599.56
2022-12-31T05:23:51.678Z,99603.69
2022-12-31T05:25:15.358Z,99605.97
2022-12-31T05:26:21.474Z,99606.88
2022-12-31T05:28:47.662Z,99619.16
2022-12-31T05:29:51.043Z,99617.31
2022-12-31T05:31:02.731Z,99617.31
2022-12-31T05:32:12.750Z,99617.91
2022-12-31T05:33:26.282Z,99631.91
2022-12-31T05:34:40.512Z,99634.19
2022-12-31T05:35:50.751Z,99629.28
2022-12-31T05:36:58.066Z,99633.03
2022-12-31T05:38:18.880Z,99637.81
2022-12-31T05:44:33.804Z,99650.44
2022-12-31T05:45:45.673Z,99658.88
2022-12-31T05:47:08.629Z,99654.22
2022-12-31T05:48:25.427Z,99661.25
2022-12-31T05:49:32.967Z,99662.28
2022-12-31T05:50:38.964Z,99662.84
2022-12-31T05:51:48.159Z,99670.50
2022-12-31T05:53:13.435Z,99673.41
2022-12-31T05:54:45.268Z,99673.09
2022-12-31T05:55:59.785Z,99679.34
2022-12-31T05:57:24.521Z,99685.72
2022-12-31T05:58:35.291Z,99680.72
2022-12-31T05:59:52.371Z,99688.78
2022-12-31T06:01:14.494Z,99695.13
2022-12-31T06:02:47.424Z,99692.41
2022-12-31T06:04:06.551Z,99682.06
2022-12-31T06:05:26.592Z,99689.94
2022-12-31T06:06:37.973Z,99688.13
2022-12-31T06:07:46.053Z,99679.69
2022-12-31T06:08:59.751Z,99694.94
2022-12-31T06:10:15.868Z,99696.09
2022-12-31T06:12:03.590Z,99697.91
2022-12-31T09:02:59.909Z,99914.75
2022-12-31T09:04:24.462Z,99911.84
2022-12-31T09:06:17.507Z,99914.75
2022-12-31T09:09:44.780Z,99907.88
2022-12-31T09:11:11.222Z,99912.13
2022-12-31T09:12:37.293Z,99916.59
2022-12-31T09:13:42.251Z,99906.19
2022-12-31T09:14:45.607Z,99913.25
2022-12-31T09:16:20.638Z,99912.69
2022-12-31T09:17:36.653Z,99916.81
2022-12-31T09:18:41.996Z,99909.50
2022-12-31T09:19:44.185Z,99917.03
2022-12-31T09:22:19.920Z,99920.94
2022-12-31T09:23:43.236Z,99926.84
2022-12-31T09:25:02.305Z,99928.19
2022-12-31T09:26:09.694Z,99927.28
2022-12-31T09:27:52.565Z,99925.91
2022-12-31T09:28:58.280Z,99936.63
2022-12-31T09:30:18.270Z,99932.78
2022-12-31T09:31:36.683Z,99928.00
2022-12-31T09:32:48.600Z,99933.34
2022-12-31T09:35:28.407Z,99935.28
2022-12-31T09:38:37.859Z,99943.28
2022-12-31T09:39:50.276Z,99947.44
2022-12-31T09:41:15.061Z,99941.97
2022-12-31T09:42:52.316Z,99947.66
2022-12-31T09:44:13.857Z,99948.34
2022-12-31T09:45:40.572Z,99948.22
2022-12-31T09:46:50.649Z,99952.78
2022-12-31T09:48:40.356Z,99946.63
2022-12-31T09:49:45.002Z,99950.66
2022-12-31T09:51:06.326Z,99946.91
2022-12-31T09:52:19.300Z,99949.19
2022-12-31T09:54:11.660Z,99950.78
2022-12-31T09:55:33.628Z,99957.53
2022-12-31T09:56:43.357Z,99952.88
2022-12-31T09:58:13.840Z,99954.25
2022-12-31T10:00:09.972Z,99943.63
2022-12-31T10:01:24.026Z,99956.16
2022-12-31T10:02:47.692Z,99952.25
2022-12-31T10:04:18.291Z,99955.59
2022-12-31T10:07:29.972Z,99959.03
2022-12-31T10:09:09.707Z,99956.66
2022-12-31T10:10:41.773Z,99957.00
2022-12-31T10:11:51.179Z,99971.13
2022-12-31T10:13:21.566Z,99972.59
2022-12-31T10:16:57.539Z,99982.06
2022-12-31T10:18:19.016Z,99980.50
2022-12-31T10:19:43.305Z,99983.44
2022-12-31T10:21:36.384Z,99995.06
2022-12-31T10:23:00.118Z,99992.72
2022-12-31T10:24:22.282Z,100002.31
2022-12-31T10:25:38.784Z,100003.94
2022-12-31T10:26:59.069Z,100004.63
2022-12-31T10:28:11.926Z,99993.69
2022-12-31T10:29:19.791Z,100001.41
2022-12-31T10:30:24.576Z,100008.03
2022-12-31T10:31:34.841Z,100014.63
2022-12-31T10:32:46.402Z,100004.88
2022-12-31T10:34:01.760Z,99998.81
2022-12-31T10:35:19.034Z,100007.25
2022-12-31T10:36:31.173Z,100005.66
2022-12-31T10:37:50.760Z,100006.63
2022-12-31T10:39:29.094Z,100000.97
2022-12-31T10:40:49.143Z,100005.66
2022-12-31T10:42:17.913Z,99999.94
2022-12-31T10:45:56.964Z,100002.31
2022-12-31T10:49:28.862Z,100019.25
2022-12-31T10:50:59.312Z,100016.97
2022-12-31T10:52:41.594Z,100009.22
2022-12-31T10:57:07.658Z,100003.94
2022-12-31T11:02:49.491Z,100000.66
2022-12-31T11:04:11.504Z,100003.81
2022-12-31T11:06:01.943Z,100002.41
2022-12-31T11:07:41.495Z,100005.78
2022-12-31T11:08:58.789Z,100011.38
2022-12-31T11:12:55.282Z,100026.75
2022-12-31T11:14:33.630Z,100025.44
2022-12-31T11:16:09.354Z,100033.00
2022-12-31T11:17:21.127Z,100038.03
2022-12-31T11:18:58.126Z,100037.44
2022-12-31T11:20:36.988Z,100045.69
2022-12-31T11:22:05.678Z,100057.47
2022-12-31T11:23:40.857Z,100049.50
2022-12-31T11:25:04.341Z,100053.16
2022-12-31T11:26:37.135Z,100064.66
2022-12-31T11:27:59.018Z,100064.22
2022-12-31T11:29:12.654Z,100069.66
2022-12-31T11:30:51.937Z,100076.56
2022-12-31T11:32:09.625Z,100066.59
2022-12-31T11:33:40.633Z,100068.78
2022-12-31T11:34:55.465Z,100066.34
2022-12-31T11:36:25.390Z,100070.09
2022-12-31T11:42:48.038Z,100079.84
2022-12-31T11:44:17.866Z,100087.06
2022-12-31T11:45:46.936Z,100090.06
2022-12-31T11:46:55.649Z,100091.63
2022-12-31T11:48:32.930Z,100094.28
2022-12-31T11:49:55.977Z,100105.88
2022-12-31T11:51:14.864Z,100111.69
2022-12-31T11:52:33.841Z,100105.44
2022-12-31T11:53:59.995Z,100099.78
2022-12-31T11:55:10.952Z,100109.81
2022-12-31T11:56:22.891Z,100108.31
2022-12-31T11:59:36.337Z,100099.72
2022-12-31T12:00:49.004Z,100107.47
2022-12-31T12:02:01.182Z,100115.63
2022-12-31T12:03:08.071Z,100105.13
2022-12-31T12:04:36.377Z,100109.16
2022-12-31T12:05:52.046Z,100108.78
2022-12-31T12:07:31.011Z,100110.97
2022-12-31T12:08:44.906Z,100125.63
2022-12-31T12:11:59.826Z,100117.38
2022-12-31T12:13:16.608Z,100114.44
2022-12-31T12:14:43.388Z,100118.56
2022-12-31T12:15:57.013Z,100112.16
2022-12-31T12:18:03.653Z,100108.81
2022-12-31T12:35:50.225Z,100132.44
2022-12-31T13:19:24.094Z,100139.31
2022-12-31T13:20:42.876Z,100146.19
2022-12-31T13:25:07.788Z,100153.94
2022-12-31T13:26:34.808Z,100155.81
2022-12-31T13:29:36.472Z,100157.31
2022-12-31T13:30:51.277Z,100157.53
2022-12-31T13:32:07.530Z,100157.28
2022-12-31T13:33:45.264Z,100162.31
2022-12-31T13:41:47.793Z,100153.94
2022-12-31T13:43:35.225Z,100154.19
2022-12-31T13:45:50.103Z,100156.84
2022-12-31T13:47:54.068Z,100149.28
2022-12-31T13:49:20.576Z,100145.28
2022-12-31T13:51:18.713Z,100151.94
2022-12-31T13:58:56.699Z,100151.81
2022-12-31T14:05:57.870Z,100163.22
2022-12-31T14:07:36.436Z,100166.00
2022-12-31T14:08:58.445Z,100166.47
2022-12-31T14:11:10.238Z,100169.94
2022-12-31T14:33:38.503Z,100150.66
2022-12-31T14:35:02.483Z,100148.19
2022-12-31T14:45:31.961Z,100139.91
2022-12-31T14:48:04.317Z,100145.38
2022-12-31T15:00:03.996Z,100142.19
2022-12-31T15:01:45.775Z,100142.47
2022-12-31T15:03:27.408Z,100157.31
2022-12-31T15:04:43.825Z,100156.91
2022-12-31T15:07:22.465Z,100153.38
2022-12-31T15:10:27.315Z,100143.34
2022-12-31T15:11:49.596Z,100143.56
2022-12-31T15:13:13.372Z,100149.66
2022-12-31T15:14:38.138Z,100145.88
2022-12-31T15:16:05.002Z,100153.78
2022-12-31T15:17:50.771Z,100146.31
2022-12-31T15:19:18.612Z,100152.47
2022-12-31T15:20:36.025Z,100151.00
2022-12-31T15:27:23.576Z,100141.22
2022-12-31T15:28:34.070Z,100149.66
2022-12-31T15:29:45.249Z,100152.34
2022-12-31T15:30:50.218Z,100153.38
2022-12-31T15:31:53.333Z,100159.13
2022-12-31T15:33:01.481Z,100151.25
2022-12-31T15:34:27.063Z,100155.13
2022-12-31T15:35:32.076Z,100160.72
2022-12-31T15:37:31.887Z,100156.97
2022-12-31T15:39:05.672Z,100149.38
2022-12-31T15:40:35.233Z,100145.53
2022-12-31T21:05:07.721Z,99874.56
